^^
Your Local Weather - Clay, NY Station Historical Data
Daily Summary for February 15, 2017 Units:  Metric    English   Both
« Previous Day
Next Day »
Daily Weekly Monthly Yearly Custom
  High: Low: Average:
Temperature: 2.6 °C -2.9 °C 0.6 °C
Dew Point: 0.7 °C -4.6 °C -1.9 °C
Humidity: 93% 66% 84%
Wind Speed: 9.7km/h 0km/h 3.5km/h
Wind Gust: 20.9km/h - -
Wind- - WNW
Pressure: 999.5 hPa 994.8 hPa -
Precipitation: 6.6 mm    
Historical Graphs
 
 
Tabular Data for February 15, 2017
Time Temperature Dew Point Pressure Wind Wind Speed Wind Gust Humidity Rainfall Rate (Hourly) solar
00:04 0.6 °C -2.3 °C 999.5 hPa Calm     81% 0 mm 0 W/m2
00:10 0.6 °C -2.3 °C 999.5 hPa Calm     81% 0 mm 0 W/m2
00:16 0.6 °C -2.1 °C 999.5 hPa Calm     82% 0 mm 0 W/m2
00:22 0.6 °C -2.1 °C 999.2 hPa Calm     82% 0 mm 0 W/m2
00:28 0.6 °C -2.1 °C 999.2 hPa Calm     82% 0 mm 0 W/m2
00:34 0.6 °C -2.1 °C 999.2 hPa Calm     82% 0 mm 0 W/m2
00:40 0.6 °C -2 °C 999.2 hPa Calm     83% 0 mm 0 W/m2
00:46 0.6 °C -2.2 °C 999.2 hPa Calm     82% 0 mm 0 W/m2
00:52 0.6 °C -2 °C 999.2 hPa Calm     83% 0 mm 0 W/m2
00:58 0.5 °C -2.1 °C 998.9 hPa Calm     83% 0 mm 0 W/m2
01:04 0.7 °C -2.1 °C 998.9 hPa Calm   3.2 km/h 82% 0 mm 0 W/m2
01:10 0.9 °C -1.9 °C 998.5 hPa Calm     81% 0 mm 0 W/m2
01:16 1.1 °C -2 °C 998.5 hPa Calm     80% 0 mm 0 W/m2
01:22 1.1 °C -2 °C 998.5 hPa Calm     80% 0 mm 0 W/m2
01:28 1.1 °C -2 °C 998.5 hPa Calm     80% 0 mm 0 W/m2
01:34 0.9 °C -2 °C 998.5 hPa Calm   3.2 km/h 81% 0 mm 0 W/m2
01:40 0.9 °C -2 °C 998.5 hPa South 1.6 km/h 1.6 km/h 81% 0 mm 0 W/m2
01:46 0.8 °C -2.1 °C 998.5 hPa Calm   1.6 km/h 81% 0 mm 0 W/m2
01:52 0.7 °C -2.1 °C 998.5 hPa Calm     82% 0 mm 0 W/m2
01:58 0.6 °C -1.9 °C 998.5 hPa Calm     83% 0 mm 0 W/m2
02:04 0.6 °C -1.9 °C 998.5 hPa Calm     83% 0 mm 0 W/m2
02:10 0.6 °C -2 °C 998.2 hPa Calm     83% 0 mm 0 W/m2
02:16 0.5 °C -1.9 °C 998.2 hPa Calm     84% 0 mm 0 W/m2
02:22 0.6 °C -2 °C 998.2 hPa Calm     83% 0 mm 0 W/m2
02:28 0.6 °C -1.9 °C 997.9 hPa Calm     83% 0 mm 0 W/m2
02:34 0.6 °C -2 °C 997.9 hPa Calm     83% 0 mm 0 W/m2
02:40 0.5 °C -1.9 °C 997.5 hPa Calm     84% 0 mm 0 W/m2
02:46 0.5 °C -1.9 °C 997.5 hPa Calm     84% 0 mm 0 W/m2
02:52 0.6 °C -1.7 °C 997.5 hPa Calm     85% 0 mm 0 W/m2
02:58 0.7 °C -1.7 °C 997.5 hPa Calm     84% 0 mm 0 W/m2
03:04 0.9 °C -1.4 °C 997.5 hPa Calm   1.6 km/h 84% 0 mm 0 W/m2
03:10 1.1 °C -1.3 °C 997.9 hPa Calm     84% 0 mm 0 W/m2
03:16 1.3 °C -1.1 °C 997.9 hPa Calm   1.6 km/h 84% 0 mm 0 W/m2
03:22 1.3 °C -0.9 °C 997.9 hPa WNW 1.6 km/h 8 km/h 85% 0 mm 0 W/m2
03:28 1.3 °C -0.9 °C 997.9 hPa WNW 1.6 km/h 8 km/h 85% 0 mm 0 W/m2
03:34 1.3 °C -0.9 °C 997.5 hPa Calm   1.6 km/h 85% 0 mm 0 W/m2
03:40 1.3 °C -0.9 °C 997.5 hPa Calm     85% 0 mm 0 W/m2
03:46 1.3 °C -0.8 °C 997.2 hPa Calm     86% 0 mm 0 W/m2
03:52 1.1 °C -0.9 °C 997.2 hPa Calm     87% 0 mm 0 W/m2
03:58 0.9 °C -0.9 °C 997.2 hPa Calm   1.6 km/h 88% 0 mm 0 W/m2
04:04 0.7 °C -1.1 °C 997.2 hPa Calm     88% 0 mm 0 W/m2
04:10 0.7 °C -0.9 °C 996.8 hPa Calm   1.6 km/h 89% 0 mm 0 W/m2
04:16 0.7 °C -0.9 °C 997.2 hPa Calm   1.6 km/h 89% 0 mm 0 W/m2
04:22 0.6 °C -0.9 °C 996.5 hPa Calm   3.2 km/h 90% 0 mm 0 W/m2
04:28 0.5 °C -0.9 °C 996.5 hPa WNW 1.6 km/h 3.2 km/h 90% 0 mm 0 W/m2
04:34 0.6 °C -0.9 °C 996.5 hPa Calm     90% 0 mm 0 W/m2
04:40 0.4 °C -1 °C 996.8 hPa Calm     90% 0 mm 0 W/m2
04:46 0.4 °C -0.9 °C 996.8 hPa Calm     91% 0 mm 0 W/m2
04:52 0.4 °C -0.9 °C 996.8 hPa Calm     91% 0 mm 0 W/m2
04:58 0.4 °C -0.8 °C 996.8 hPa Calm     91% 0 mm 0 W/m2
05:04 0.4 °C -0.9 °C 996.8 hPa Calm     91% 0 mm 0 W/m2
05:10 0.3 °C -0.9 °C 996.8 hPa Calm     91% 0 mm 0 W/m2
05:16 0.3 °C -0.9 °C 996.8 hPa Calm     91% 0 mm 0 W/m2
05:22 0.3 °C -0.9 °C 996.8 hPa Calm     91% 0 mm 0 W/m2
05:28 0.4 °C -0.9 °C 996.5 hPa Calm     91% 2.29 mm 0 W/m2
05:34 0.6 °C -0.6 °C 996.5 hPa Calm   1.6 km/h 92% 2.29 mm 0 W/m2
05:40 0.8 °C -0.3 °C 996.5 hPa Calm     92% 1.52 mm 0 W/m2
05:46 1.1 °C -0.1 °C 996.5 hPa Calm   1.6 km/h 92% 1.02 mm 0 W/m2
05:52 1.2 °C 0 °C 996.5 hPa Calm     92% 0 mm 0 W/m2
05:58 1.2 °C 0 °C 996.2 hPa Calm     92% 0 mm 0 W/m2
06:04 1.2 °C 0 °C 996.2 hPa Calm     92% 0 mm 0 W/m2
06:10 1.1 °C -0.1 °C 996.2 hPa Calm     92% 0 mm 0 W/m2
06:16 0.9 °C -0.3 °C 996.2 hPa Calm     92% 0 mm 0 W/m2
06:22 0.7 °C -0.6 °C 996.2 hPa Calm     91% 0 mm 0 W/m2
06:28 0.7 °C -0.5 °C 996.2 hPa Calm     92% 0 mm 0 W/m2
06:34 0.6 °C -0.6 °C 996.2 hPa Calm     92% 0 mm 0 W/m2
06:40 0.6 °C -0.6 °C 996.2 hPa Calm     92% 0 mm 0 W/m2
06:46 0.6 °C -0.6 °C 995.8 hPa Calm     92% 0 mm 0 W/m2
06:52 0.4 °C -0.7 °C 995.8 hPa Calm     92% 0 mm 0 W/m2
06:58 0.4 °C -0.7 °C 995.8 hPa Calm     92% 0 mm 0 W/m2
07:04 0.4 °C -0.7 °C 995.8 hPa Calm     92% 0 mm 0 W/m2
07:10 0.4 °C -0.7 °C 995.8 hPa Calm     92% 0 mm 0 W/m2
07:16 0.4 °C -0.7 °C 995.8 hPa Calm     92% 0 mm 0 W/m2
07:22 0.5 °C -0.7 °C 995.8 hPa Calm     92% 0 mm 0 W/m2
07:28 0.6 °C -0.6 °C 995.5 hPa Calm     92% 0 mm 5 W/m2
07:34 0.6 °C -0.6 °C 995.5 hPa Calm     92% 0 mm 7 W/m2
07:40 0.5 °C -0.7 °C 995.5 hPa Calm     92% 0 mm 9 W/m2
07:46 0.5 °C -0.7 °C 995.5 hPa Calm     92% 0 mm 11 W/m2
07:52 0.5 °C -0.7 °C 995.5 hPa Calm     92% 0 mm 11 W/m2
07:58 0.6 °C -0.4 °C 995.5 hPa Calm     93% 0 mm 12 W/m2
08:04 0.6 °C -0.4 °C 995.5 hPa Calm     93% 1.52 mm 14 W/m2
08:10 0.7 °C -0.3 °C 995.5 hPa Calm   3.2 km/h 93% 1.27 mm 12 W/m2
08:16 0.7 °C -0.3 °C 995.5 hPa WNW 1.6 km/h 3.2 km/h 93% 0 mm 18 W/m2
08:22 0.6 °C -0.4 °C 995.5 hPa Calm     93% 3.3 mm 26 W/m2
08:28 0.5 °C -0.5 °C 995.5 hPa Calm     93% 2.03 mm 32 W/m2
08:34 0.5 °C -0.5 °C 995.1 hPa Calm     93% 1.27 mm 35 W/m2
08:40 0.4 °C -0.6 °C 995.5 hPa Calm     93% 1.27 mm 30 W/m2
08:46 0.4 °C -0.7 °C 995.5 hPa Calm     92% 1.27 mm 21 W/m2
08:52 0.4 °C -0.8 °C 995.5 hPa Calm     92% 1.27 mm 19 W/m2
08:58 0.3 °C -0.7 °C 995.5 hPa Calm     93% 1.27 mm 21 W/m2
09:04 0.3 °C -0.7 °C 995.5 hPa Calm     93% 0 mm 28 W/m2
09:10 0.3 °C -0.7 °C 995.1 hPa Calm     93% 0 mm 35 W/m2
09:16 0.3 °C -0.7 °C 995.1 hPa Calm     93% 0 mm 39 W/m2
09:22 0.3 °C -0.7 °C 995.1 hPa Calm     93% 0 mm 53 W/m2
09:28 0.4 °C -0.6 °C 995.1 hPa Calm     93% 0 mm 56 W/m2
09:34 0.4 °C -0.6 °C 994.8 hPa Calm     93% 0 mm 77 W/m2
09:40 0.5 °C -0.5 °C 994.8 hPa Calm     93% 0 mm 63 W/m2
09:46 0.6 °C -0.4 °C 994.8 hPa Calm   3.2 km/h 93% 1.02 mm 77 W/m2
09:52 0.6 °C -0.4 °C 995.1 hPa Calm     93% 1.02 mm 81 W/m2
09:58 0.6 °C -0.4 °C 995.1 hPa WNW 1.6 km/h 3.2 km/h 93% 1.02 mm 83 W/m2
10:04 0.7 °C -0.3 °C 995.1 hPa WNW 1.6 km/h 3.2 km/h 93% 2.03 mm 77 W/m2
10:10 0.8 °C -0.2 °C 994.8 hPa WNW 1.6 km/h 1.6 km/h 93% 1.78 mm 98 W/m2
10:16 0.9 °C -0.1 °C 994.8 hPa WNW 1.6 km/h 1.6 km/h 93% 1.02 mm 128 W/m2
10:22 1.2 °C 0.2 °C 994.8 hPa WNW 1.6 km/h 4.8 km/h 93% 1.02 mm 158 W/m2
10:28 1.3 °C 0.3 °C 994.8 hPa WNW 1.6 km/h 4.8 km/h 93% 1.02 mm 167 W/m2
10:34 1.6 °C 0.6 °C 995.1 hPa WNW 1.6 km/h 3.2 km/h 93% 1.02 mm 190 W/m2
10:40 1.7 °C 0.7 °C 995.1 hPa WNW 1.6 km/h 1.6 km/h 93% 1.02 mm 113 W/m2
10:46 1.8 °C 0.6 °C 995.5 hPa WNW 1.6 km/h 4.8 km/h 92% 1.02 mm 127 W/m2
10:52 1.8 °C 0.6 °C 995.5 hPa WNW 3.2 km/h 3.2 km/h 92% 0 mm 63 W/m2
10:58 1.8 °C 0.4 °C 995.5 hPa WNW 3.2 km/h 4.8 km/h 91% 0 mm 90 W/m2
11:04 1.8 °C 0.4 °C 995.5 hPa WNW 1.6 km/h 3.2 km/h 91% 0 mm 95 W/m2
11:10 1.8 °C 0.3 °C 995.5 hPa WNW 1.6 km/h 1.6 km/h 90% 0 mm 139 W/m2
11:16 1.8 °C 0.2 °C 995.5 hPa NW 3.2 km/h 4.8 km/h 89% 0 mm 163 W/m2
11:22 1.9 °C 0.2 °C 995.5 hPa NW 1.6 km/h 4.8 km/h 88% 0 mm 144 W/m2
11:28 2 °C 0.2 °C 995.5 hPa NW 1.6 km/h 4.8 km/h 88% 0 mm 109 W/m2
11:34 2.1 °C 0.1 °C 995.5 hPa NW 1.6 km/h 3.2 km/h 87% 0 mm 149 W/m2
11:40 2.1 °C 0 °C 995.5 hPa NW 3.2 km/h 3.2 km/h 86% 0 mm 163 W/m2
11:46 2.2 °C -0.1 °C 995.5 hPa NW 3.2 km/h 3.2 km/h 85% 0 mm 134 W/m2
11:52 2.2 °C -0.3 °C 995.5 hPa WNW 4.8 km/h 4.8 km/h 84% 0 mm 239 W/m2
11:58 2.3 °C -0.3 °C 995.5 hPa NW 4.8 km/h 4.8 km/h 83% 0 mm 193 W/m2
12:04 2.3 °C -0.5 °C 995.5 hPa WNW 4.8 km/h 9.7 km/h 82% 0 mm 162 W/m2
12:10 2.2 °C -0.6 °C 995.5 hPa WNW 4.8 km/h 4.8 km/h 82% 0 mm 214 W/m2
12:16 2.4 °C -0.6 °C 995.5 hPa NNW 3.2 km/h 8 km/h 81% 0 mm 276 W/m2
12:22 2.4 °C -0.8 °C 995.5 hPa West 4.8 km/h 6.4 km/h 79% 0 mm 244 W/m2
12:28 2.3 °C -1.1 °C 995.5 hPa WNW 6.4 km/h 8 km/h 78% 0 mm 172 W/m2
12:34 2.2 °C -1.3 °C 995.1 hPa NW 6.4 km/h 6.4 km/h 78% 0 mm 128 W/m2
12:40 2.1 °C -1.2 °C 995.1 hPa WNW 4.8 km/h 9.7 km/h 79% 0 mm 218 W/m2
12:46 2.2 °C -1.3 °C 995.1 hPa WNW 4.8 km/h 9.7 km/h 78% 0 mm 206 W/m2
12:52 2.2 °C -1.4 °C 995.1 hPa NW 4.8 km/h 4.8 km/h 77% 0 mm 193 W/m2
12:58 2.3 °C -1.3 °C 995.1 hPa WNW 4.8 km/h 9.7 km/h 77% 0 mm 376 W/m2
13:04 2.4 °C -1.6 °C 995.1 hPa NW 4.8 km/h 6.4 km/h 75% 0 mm 246 W/m2
13:10 2.4 °C -1.7 °C 995.1 hPa NW 4.8 km/h 4.8 km/h 74% 0 mm 341 W/m2
13:16 2.4 °C -1.9 °C 995.1 hPa NW 6.4 km/h 9.7 km/h 73% 0 mm 274 W/m2
13:22 2.4 °C -2.2 °C 995.1 hPa WNW 6.4 km/h 9.7 km/h 72% 0 mm 316 W/m2
13:28 2.6 °C -2.2 °C 995.1 hPa WNW 6.4 km/h 9.7 km/h 71% 0 mm 385 W/m2
13:34 2.6 °C -2.3 °C 995.1 hPa WNW 8 km/h 8 km/h 70% 0 mm 285 W/m2
13:40 2.3 °C -2.8 °C 995.1 hPa NW 8 km/h 8 km/h 69% 0 mm 146 W/m2
13:46 2.1 °C -2.7 °C 995.1 hPa West 8 km/h 11.3 km/h 71% 0 mm 118 W/m2
13:52 2.1 °C -2.4 °C 995.1 hPa WNW 6.4 km/h 8 km/h 72% 0 mm 251 W/m2
13:58 2.4 °C -2.5 °C 995.1 hPa NW 6.4 km/h 9.7 km/h 70% 0 mm 265 W/m2
14:04 2.5 °C -2.4 °C 995.1 hPa WNW 6.4 km/h 9.7 km/h 70% 0 mm 109 W/m2
14:10 2.1 °C -2.8 °C 995.5 hPa NW 6.4 km/h 8 km/h 70% 0 mm 79 W/m2
14:16 1.6 °C -2.8 °C 995.5 hPa WNW 8 km/h 12.9 km/h 73% 0 mm 116 W/m2
14:22 1.5 °C -2.4 °C 995.5 hPa NNW 6.4 km/h 8 km/h 75% 0 mm 125 W/m2
14:28 1.4 °C -2.3 °C 995.5 hPa WNW 4.8 km/h 8 km/h 76% 0 mm 174 W/m2
14:34 1.6 °C -2.2 °C 995.5 hPa WNW 6.4 km/h 9.7 km/h 76% 0 mm 216 W/m2
14:40 1.7 °C -2.2 °C 995.8 hPa NW 6.4 km/h 6.4 km/h 75% 0 mm 248 W/m2
14:46 2.1 °C -2.1 °C 995.8 hPa West 6.4 km/h 9.7 km/h 74% 0 mm 299 W/m2
14:52 2.1 °C -3.2 °C 995.8 hPa West 6.4 km/h 8 km/h 68% 0 mm 290 W/m2
14:58 2.1 °C -3.4 °C 995.8 hPa NW 8 km/h 9.7 km/h 67% 0 mm 127 W/m2
15:04 1.9 °C -3.2 °C 995.8 hPa NW 6.4 km/h 9.7 km/h 69% 0 mm 88 W/m2
15:10 1.9 °C -3.2 °C 995.8 hPa WNW 8 km/h 8 km/h 69% 0 mm 83 W/m2
15:16 1.8 °C -3.3 °C 995.8 hPa NNW 8 km/h 12.9 km/h 69% 0 mm 91 W/m2
15:22 2 °C -3.3 °C 995.8 hPa WNW 6.4 km/h 6.4 km/h 68% 0 mm 128 W/m2
15:28 1.9 °C -3.7 °C 995.8 hPa WNW 6.4 km/h 8 km/h 66% 0 mm 102 W/m2
15:34 1.9 °C -3.6 °C 995.8 hPa WNW 6.4 km/h 11.3 km/h 67% 0 mm 76 W/m2
15:40 1.8 °C -3.4 °C 995.8 hPa NW 8 km/h 8 km/h 68% 0 mm 53 W/m2
15:46 1.8 °C -3.3 °C 995.8 hPa West 8 km/h 9.7 km/h 69% 0 mm 62 W/m2
15:52 1.8 °C -3.1 °C 995.8 hPa NNW 6.4 km/h 8 km/h 70% 0 mm 98 W/m2
15:58 1.8 °C -3.1 °C 996.2 hPa WNW 6.4 km/h 8 km/h 70% 0 mm 90 W/m2
16:04 1.8 °C -2.9 °C 996.2 hPa West 6.4 km/h 9.7 km/h 71% 0 mm 86 W/m2
16:10 1.8 °C -2.9 °C 996.2 hPa NW 6.4 km/h 6.4 km/h 71% 0 mm 74 W/m2
16:16 1.8 °C -3.1 °C 996.2 hPa West 6.4 km/h 9.7 km/h 70% 0 mm 51 W/m2
16:22 1.7 °C -3.1 °C 996.2 hPa NW 8 km/h 11.3 km/h 71% 0 mm 47 W/m2
16:28 1.4 °C -2.5 °C 996.2 hPa West 9.7 km/h 11.3 km/h 75% 0 mm 40 W/m2
16:34 1.1 °C -2.3 °C 996.5 hPa NW 6.4 km/h 9.7 km/h 78% 0 mm 83 W/m2
16:40 0.9 °C -2.2 °C 996.2 hPa WNW 4.8 km/h 4.8 km/h 80% 0 mm 33 W/m2
16:46 0.6 °C -2 °C 996.5 hPa WNW 6.4 km/h 20.9 km/h 83% 0 mm 11 W/m2
16:52 0.2 °C -1.7 °C 996.5 hPa WNW 6.4 km/h 8 km/h 87% 0 mm 46 W/m2
16:58 0.1 °C -1.7 °C 996.5 hPa WNW 3.2 km/h 8 km/h 88% 0 mm 26 W/m2
17:04 0.1 °C -1.7 °C 996.5 hPa WSW 3.2 km/h 8 km/h 88% 0 mm 9 W/m2
17:10 0.1 °C -1.6 °C 996.5 hPa WNW 4.8 km/h 9.7 km/h 89% 0 mm 9 W/m2
17:16 0 °C -1.6 °C 996.5 hPa WNW 6.4 km/h 9.7 km/h 89% 0 mm 9 W/m2
17:22 0 °C -1.4 °C 996.5 hPa WNW 4.8 km/h 6.4 km/h 90% 0 mm 11 W/m2
17:28 0.1 °C -1.6 °C 996.5 hPa WNW 6.4 km/h 8 km/h 89% 0 mm 0 W/m2
17:34 0.1 °C -1.5 °C 996.5 hPa SW 6.4 km/h 11.3 km/h 89% 0 mm 0 W/m2
17:40 0.2 °C -1.6 °C 996.5 hPa West 6.4 km/h 6.4 km/h 88% 0 mm 0 W/m2
17:46 0.2 °C -1.7 °C 996.8 hPa WNW 4.8 km/h 6.4 km/h 87% 0 mm 0 W/m2
17:52 0.3 °C -1.7 °C 996.8 hPa West 4.8 km/h 8 km/h 86% 0 mm 0 W/m2
17:58 0.4 °C -2 °C 996.8 hPa West 6.4 km/h 8 km/h 84% 0 mm 0 W/m2
18:04 0.4 °C -2.2 °C 996.8 hPa WNW 4.8 km/h 6.4 km/h 83% 0 mm 0 W/m2
18:10 0.4 °C -2.7 °C 996.8 hPa NW 4.8 km/h 8 km/h 80% 0 mm 0 W/m2
18:16 0.4 °C -3.1 °C 997.2 hPa WNW 8 km/h 12.9 km/h 77% 0 mm 0 W/m2
18:22 0.4 °C -3.3 °C 997.2 hPa West 8 km/h 11.3 km/h 76% 0 mm 0 W/m2
18:28 0.4 °C -3.6 °C 997.2 hPa West 6.4 km/h 11.3 km/h 75% 0 mm 0 W/m2
18:34 0.3 °C -3.8 °C 997.2 hPa WNW 6.4 km/h 14.5 km/h 74% 0 mm 0 W/m2
18:40 0.3 °C -3.8 °C 997.5 hPa WNW 6.4 km/h 8 km/h 74% 0 mm 0 W/m2
18:46 0.3 °C -3.8 °C 997.5 hPa WNW 6.4 km/h 9.7 km/h 74% 0 mm 0 W/m2
18:48 0.3 °C -3.8 °C 997.5 hPa WNW 6.4 km/h 9.7 km/h 74% 0 mm 0 W/m2
18:54 0.3 °C -3.8 °C 997.2 hPa West 4.8 km/h 6.4 km/h 74% 0 mm 0 W/m2
19:00 0.3 °C -3.9 °C 997.5 hPa WNW 6.4 km/h 6.4 km/h 73% 0 mm 0 W/m2
19:06 0.3 °C -3.8 °C 997.5 hPa WNW 6.4 km/h 9.7 km/h 74% 0 mm 0 W/m2
19:12 0.3 °C -3.8 °C 997.5 hPa NNW 4.8 km/h 4.8 km/h 74% 0 mm 0 W/m2
19:18 0.3 °C -3.8 °C 997.5 hPa NW 4.8 km/h 4.8 km/h 74% 0 mm 0 W/m2
19:24 0.3 °C -3.8 °C 997.5 hPa WNW 6.4 km/h 8 km/h 74% 0 mm 0 W/m2
19:30 0.3 °C -3.8 °C 997.5 hPa WNW 6.4 km/h 6.4 km/h 74% 0 mm 0 W/m2
19:36 0.3 °C -3.6 °C 997.5 hPa WNW 6.4 km/h 12.9 km/h 75% 0 mm 0 W/m2
19:42 0.3 °C -3.6 °C 997.9 hPa NW 8 km/h 16.1 km/h 75% 0 mm 0 W/m2
19:48 0.2 °C -3.5 °C 997.9 hPa West 9.7 km/h 16.1 km/h 76% 0 mm 0 W/m2
19:54 0.1 °C -3.6 °C 997.9 hPa West 9.7 km/h 11.3 km/h 76% 0 mm 0 W/m2
20:00 0.1 °C -3.7 °C 997.9 hPa West 8 km/h 16.1 km/h 76% 0 mm 0 W/m2
20:06 -0.1 °C -3.6 °C 998.2 hPa West 9.7 km/h 16.1 km/h 77% 0 mm 0 W/m2
20:12 -0.1 °C -3.7 °C 998.2 hPa WNW 9.7 km/h 12.9 km/h 77% 0 mm 0 W/m2
20:18 -0.2 °C -3.6 °C 998.2 hPa WNW 9.7 km/h 14.5 km/h 78% 0 mm 0 W/m2
20:24 -0.3 °C -3.7 °C 998.2 hPa WNW 8 km/h 9.7 km/h 78% 0 mm 0 W/m2
20:30 -0.3 °C -3.6 °C 998.2 hPa WNW 6.4 km/h 6.4 km/h 79% 0 mm 0 W/m2
20:36 -0.4 °C -3.7 °C 998.5 hPa West 6.4 km/h 9.7 km/h 79% 0 mm 0 W/m2
20:42 -0.6 °C -3.8 °C 998.5 hPa WSW 8 km/h 8 km/h 79% 0 mm 0 W/m2
20:48 -0.7 °C -4.1 °C 998.5 hPa WNW 8 km/h 14.5 km/h 78% 0 mm 0 W/m2
20:54 -0.7 °C -4.1 °C 998.5 hPa West 8 km/h 11.3 km/h 78% 0 mm 0 W/m2
21:00 -0.8 °C -4.1 °C 998.5 hPa West 6.4 km/h 6.4 km/h 78% 0 mm 0 W/m2
21:06 -0.9 °C -4.2 °C 998.5 hPa WNW 8 km/h 11.3 km/h 78% 0 mm 0 W/m2
21:12 -0.9 °C -4.1 °C 998.5 hPa WNW 6.4 km/h 6.4 km/h 79% 0 mm 0 W/m2
21:18 -1.1 °C -4.3 °C 998.5 hPa WNW 8 km/h 9.7 km/h 79% 0 mm 0 W/m2
21:24 -1.2 °C -4.2 °C 998.5 hPa WNW 9.7 km/h 9.7 km/h 80% 0 mm 0 W/m2
21:30 -1.3 °C -4 °C 998.9 hPa WNW 6.4 km/h 6.4 km/h 82% 0 mm 0 W/m2
21:36 -1.4 °C -4.1 °C 998.9 hPa West 6.4 km/h 9.7 km/h 82% 0 mm 0 W/m2
21:42 -1.5 °C -4 °C 998.9 hPa NW 8 km/h 8 km/h 83% 0 mm 0 W/m2
21:48 -1.7 °C -4.2 °C 998.9 hPa WSW 8 km/h 14.5 km/h 83% 0 mm 0 W/m2
21:54 -1.8 °C -4.1 °C 998.9 hPa West 6.4 km/h 9.7 km/h 84% 0 mm 0 W/m2
22:00 -1.9 °C -4.1 °C 998.9 hPa WNW 6.4 km/h 6.4 km/h 85% 0 mm 0 W/m2
22:06 -1.9 °C -4.1 °C 998.9 hPa West 8 km/h 8 km/h 85% 0 mm 0 W/m2
22:18 -2.2 °C -4.2 °C 998.9 hPa WNW 6.4 km/h 8 km/h 86% 0 mm 0 W/m2
22:24 -2.2 °C -4.2 °C 998.9 hPa West 8 km/h 11.3 km/h 86% 0 mm 0 W/m2
22:30 -2.3 °C -4.3 °C 998.9 hPa West 8 km/h 11.3 km/h 86% 0 mm 0 W/m2
22:36 -2.3 °C -4.3 °C 998.9 hPa West 8 km/h 14.5 km/h 86% 0 mm 0 W/m2
22:42 -2.4 °C -4.4 °C 999.2 hPa WNW 6.4 km/h 8 km/h 86% 0 mm 0 W/m2
22:48 -2.4 °C -4.4 °C 999.2 hPa West 8 km/h 9.7 km/h 86% 0 mm 0 W/m2
22:54 -2.6 °C -4.6 °C 999.2 hPa WNW 8 km/h 9.7 km/h 86% 0 mm 0 W/m2
23:00 -2.6 °C -4.5 °C 999.2 hPa WNW 6.4 km/h 6.4 km/h 87% 0 mm 0 W/m2
23:06 -2.7 °C -4.6 °C 999.2 hPa West 6.4 km/h 9.7 km/h 87% 0 mm 0 W/m2
23:12 -2.7 °C -4.4 °C 999.2 hPa WNW 6.4 km/h 6.4 km/h 88% 0 mm 0 W/m2
23:18 -2.8 °C -4.5 °C 999.2 hPa WNW 6.4 km/h 11.3 km/h 88% 0 mm 0 W/m2
23:24 -2.8 °C -4.6 °C 999.2 hPa WNW 6.4 km/h 8 km/h 88% 0 mm 0 W/m2
23:30 -2.8 °C -4.4 °C 999.2 hPa NW 8 km/h 14.5 km/h 89% 0 mm 0 W/m2
23:36 -2.9 °C -4.4 °C 999.2 hPa West 6.4 km/h 14.5 km/h 89% 0 mm 0 W/m2
23:42 -2.8 °C -4.4 °C 999.5 hPa West 6.4 km/h 9.7 km/h 89% 0 mm 0 W/m2
23:48 -2.9 °C -4.4 °C 999.5 hPa WNW 6.4 km/h 9.7 km/h 89% 0 mm 0 W/m2
23:54 -2.9 °C -4.4 °C 999.5 hPa WNW 4.8 km/h 6.4 km/h 89% 0 mm 0 W/m2
Country Meadow, Clay, NY, USA
Compliments of Weather Underground - 2 mb